Aérodrome :
LOGIN :

S'inscrire | Disclaimer

   EN    FR    IT 

 










Légende :    VFR   VFR Marginal   IFR   IFR Intensif   IFR Très Intensif
Visi : 
Plafond : 
>= 8 km
>= 3000ft
5 à 8 km
1000 à 3000 ft
1500m à 5 km
500 à 1000 ft
800 à 1500m
200 à 500 ft
< 800m
< 200 ft
Symboles :   Orages  Brouillard  Fortes neiges  Fortes précipitations  Vent > 20 kt
SIGMETs :   Divers  Orages  Givrage  Turbulence  Onde Orograph.  Cendres Volcan.







- Altitude de l'aérodrome : 659 ft
- Code IATA : LGG


EBLG - Liège

DERNIER METAR :
  • 180650Z 32010KT 6000 -RA SCT005 BKN007 05/04 Q1018 TEMPO 2500 RADZ BKN004

METARs EXPIRÉS :
  • 180620Z 32011KT 280V340 3500 -RA SCT004 BKN006 05/03 Q1018 TEMPO 1500 RADZ BKN003
  • 180550Z 32009KT 6000 SCT005 BKN007 05/03 Q1017 TEMPO 1500 RADZ BKN003
  • 180520Z 32009KT 3500 BR SCT003 BKN004 05/03 Q1017 TEMPO 1500 RADZ BKN003
  • 180450Z 31007KT 270V350 3500 -SHRA SCT002 BKN006 05/03 Q1017 TEMPO 2000 RADZ BKN005
  • 180420Z 27009KT 8000 -SHRA SCT002 BKN006 04/02 Q1017 NOSIG

TAF TAF EBLG
Valide du 18 à 06h jusqu'au 19 à 12h UTC


180517Z 1806/1912 32009KT 8000 SCT008 BKN012
PROB40
TEMPO 1806/1810 4000 SHRA BKN007
BECMG 1820/1822 2500 BR
PROB40
TEMPO 1823/1909 0500 FG BKN001
Pas de NOTAMs connus pour ce terrain.
2 SIGMETs publiés pour la FIR Brussels (EBBU) :
 
Turbulence forte
EBBU SIGMET 02 VALID 180700/181100 EBBR
EBBU BRUSSELS FIR SEV TURB OBS E OF E004 FL250/400 MOV E NC=
Turbulence forte
EBBU SIGMET 01 VALID 180300/180700 EBBR
EBBU BRUSSELS FIR SEV TURB FCST ENTIRE FIR FL250/400 MOV E NC=



MET'MAP, la Météo Aéronautique d'un coup d'oeil ! - Copyright ORBIFLY Décembre 2007 - Disclaimer

ORBIFLY MET'MAP TEAM :

Programmation & Développement : Alexandra Zaïnal
Conception & Développement : Baudouin d'Aumeries
Co-Programmation & Développement : Marc-Olivier Méhu
Soutien technique & logistique : Manuel Goepfert

Contact : metmap@orbifly.com




SOURCES & CREDITS :

   NOAA